Nearby METAR Reports

 

NZWN - Wellington Intl, New Zealand
Distance from station: E 68km
Updated: 15/11/2018 13:00
Clear
Clear
 Wind from NNW
Wind: NNW 33 km/h
Temperature: 20°C
Dew Point: 13°C
Humidity: 64%
Barometer: 1024 hPa
Clouds: Clear
Visibility: 10 km
2018/11/15 00:00 NZWN 150000Z AUTO 34018KT 9999 NCD 20/13 Q1024 NOSIG
NZCH - Christchurch Int, New Zealand
Distance from station: SSW 269km
Updated: 15/11/2018 13:00
Clear
Clear
 Wind from ENE
Wind: ENE 13 km/h
Temperature: 24°C
Dew Point: 10°C
Humidity: 41%
Barometer: 1019 hPa
Clouds: Clear
Visibility: 10 km
2018/11/15 00:00 NZCH 150000Z AUTO 07007KT 040V110 9999 NCD 24/10 Q1019 NOSIG
 
NZAA - Auckland Intl Ar, New Zealand
Distance from station: N 480km
Updated: 15/11/2018 13:00
Few Clouds
Few Clouds
 Wind from NE
Wind: NE 20 km/h
Temperature: 21°C
Dew Point: 10°C
Humidity: 50%
Barometer: 1026 hPa
Clouds: Few Clouds
Visibility: 10 km
Cloud details: Few Clouds 1463 m
2018/11/15 00:00 NZAA 150000Z AUTO 04011KT 360V080 9999 FEW048/// 21/10 Q1026 NOSIG